createdAt,value
2023-05-14T00:01:45.027Z,70.61
2023-05-14T00:04:12.581Z,70.80
2023-05-14T00:06:40.147Z,71.15
2023-05-14T00:09:07.700Z,72.22
2023-05-14T00:11:35.254Z,72.50
2023-05-14T00:14:02.812Z,72.21
2023-05-14T00:16:30.655Z,72.57
2023-05-14T00:18:58.386Z,72.75
2023-05-14T00:21:25.956Z,72.58
2023-05-14T00:23:53.500Z,72.92
2023-05-14T00:26:20.996Z,73.43
2023-05-14T00:28:48.552Z,73.59
2023-05-14T00:31:16.096Z,73.88
2023-05-14T00:33:43.615Z,73.96
2023-05-14T00:36:11.172Z,73.86
2023-05-14T00:38:38.713Z,74.17
2023-05-14T00:41:06.294Z,74.29
2023-05-14T00:43:33.822Z,74.42
2023-05-14T00:46:01.636Z,74.52
2023-05-14T00:48:29.575Z,74.67
2023-05-14T00:50:57.540Z,75.01
2023-05-14T00:53:25.264Z,75.51
2023-05-14T00:55:52.950Z,75.50
2023-05-14T00:58:21.934Z,75.63
2023-05-14T01:00:49.488Z,75.75
2023-05-14T01:03:20.150Z,76.08
2023-05-14T01:05:58.773Z,76.16
2023-05-14T01:08:50.634Z,76.19
2023-05-14T01:11:53.686Z,76.52
2023-05-14T01:14:28.610Z,76.47
2023-05-14T01:16:59.041Z,76.35
2023-05-14T01:19:41.102Z,76.64
2023-05-14T01:22:08.863Z,76.60
2023-05-14T01:24:36.461Z,76.51
2023-05-14T01:27:29.716Z,76.38
2023-05-14T01:30:11.396Z,76.52
2023-05-14T01:32:40.639Z,76.56
2023-05-14T01:35:09.808Z,76.28
2023-05-14T01:37:38.747Z,76.46
2023-05-14T01:40:07.182Z,76.61
2023-05-14T01:42:35.383Z,76.57
2023-05-14T01:45:03.294Z,76.36
2023-05-14T01:47:30.842Z,76.66
2023-05-14T01:49:58.593Z,76.77
2023-05-14T01:52:26.181Z,76.83
2023-05-14T01:54:53.689Z,76.91
2023-05-14T01:57:21.227Z,77.02
2023-05-14T01:59:48.758Z,77.11
2023-05-14T02:02:16.293Z,77.18
2023-05-14T02:04:46.489Z,77.35
2023-05-14T02:07:13.968Z,77.58
2023-05-14T02:09:41.781Z,77.96
2023-05-14T02:12:11.339Z,77.94
2023-05-14T02:14:38.901Z,78.26
2023-05-14T02:17:06.452Z,78.24
2023-05-14T02:19:34.022Z,78.34
2023-05-14T02:22:01.547Z,78.59
2023-05-14T02:24:29.195Z,78.79
2023-05-14T02:26:56.777Z,79.25
2023-05-14T02:29:24.456Z,79.20
2023-05-14T02:31:52.159Z,79.47
2023-05-14T02:34:19.770Z,79.69
2023-05-14T02:36:47.286Z,79.66
2023-05-14T02:39:14.840Z,80.29
2023-05-14T02:41:42.464Z,81.10
2023-05-14T02:44:09.993Z,80.92
2023-05-14T02:46:37.610Z,80.60
2023-05-14T02:49:05.150Z,80.68
2023-05-14T02:51:32.661Z,80.75
2023-05-14T02:54:00.232Z,80.38
2023-05-14T02:56:27.816Z,80.74
2023-05-14T02:58:55.357Z,80.54
2023-05-14T03:01:23.610Z,80.46
2023-05-14T03:03:51.622Z,80.44
2023-05-14T03:06:20.001Z,80.33
2023-05-14T03:08:47.565Z,80.73
2023-05-14T03:11:15.218Z,81.12
2023-05-14T03:13:42.784Z,81.06
2023-05-14T03:16:10.348Z,81.14
2023-05-14T03:18:37.946Z,81.01
2023-05-14T03:21:05.559Z,81.01
2023-05-14T03:23:33.137Z,80.89
2023-05-14T03:26:01.319Z,81.30
2023-05-14T03:28:28.879Z,81.42
2023-05-14T03:30:56.616Z,81.34
2023-05-14T03:33:24.301Z,81.53
2023-05-14T03:35:52.028Z,81.30
2023-05-14T03:38:19.639Z,81.41
2023-05-14T03:40:47.249Z,81.15
2023-05-14T03:43:19.721Z,80.96
2023-05-14T03:45:47.301Z,80.92
2023-05-14T03:48:14.976Z,81.02
2023-05-14T03:50:42.690Z,81.08
2023-05-14T03:53:10.252Z,80.92
2023-05-14T03:55:37.847Z,80.91
2023-05-14T03:58:05.378Z,80.51
2023-05-14T04:00:32.982Z,80.33
2023-05-14T04:03:00.647Z,80.36
2023-05-14T04:05:30.218Z,80.06
2023-05-14T04:07:57.878Z,80.05
2023-05-14T04:10:25.517Z,79.99
2023-05-14T04:12:53.248Z,80.05
2023-05-14T04:15:20.917Z,79.84
2023-05-14T04:17:48.466Z,79.62
2023-05-14T04:20:18.868Z,79.58
2023-05-14T04:22:46.418Z,79.16
2023-05-14T04:25:14.028Z,78.81
2023-05-14T04:27:41.535Z,78.41
2023-05-14T04:30:11.582Z,78.55
2023-05-14T04:32:39.297Z,78.47
2023-05-14T04:35:07.762Z,78.15
2023-05-14T04:37:35.335Z,78.07
2023-05-14T04:40:04.488Z,77.84
2023-05-14T04:42:32.060Z,77.79
2023-05-14T04:44:59.594Z,77.74
2023-05-14T04:47:27.163Z,77.69
2023-05-14T04:49:54.678Z,77.61
2023-05-14T04:52:22.214Z,77.34
2023-05-14T04:54:51.269Z,77.11
2023-05-14T04:57:18.967Z,77.00
2023-05-14T04:59:46.578Z,76.67
2023-05-14T05:02:14.125Z,76.67
2023-05-14T05:04:41.740Z,76.28
2023-05-14T05:07:09.307Z,76.16
2023-05-14T05:09:36.896Z,75.77
2023-05-14T05:12:05.048Z,75.20
2023-05-14T05:14:32.588Z,75.24
2023-05-14T05:17:00.121Z,74.98
2023-05-14T05:19:39.723Z,74.17
2023-05-14T05:22:11.206Z,73.75
2023-05-14T05:24:38.823Z,73.84
2023-05-14T05:27:06.362Z,73.29
2023-05-14T05:29:34.644Z,72.80
2023-05-14T05:32:02.443Z,72.61
2023-05-14T05:34:29.988Z,72.22
2023-05-14T05:36:57.531Z,72.23
2023-05-14T05:39:25.225Z,71.71
2023-05-14T05:41:54.337Z,71.57
2023-05-14T05:44:21.876Z,70.93
2023-05-14T05:46:49.470Z,70.30
2023-05-14T05:49:17.136Z,70.18
2023-05-14T05:51:44.672Z,69.55
2023-05-14T05:54:12.238Z,68.89
2023-05-14T05:56:39.751Z,68.48
2023-05-14T05:59:07.295Z,68.17
2023-05-14T06:01:34.886Z,67.78
2023-05-14T06:04:02.399Z,67.10
2023-05-14T06:06:29.922Z,67.01
2023-05-14T06:08:57.437Z,66.52
2023-05-14T06:11:25.184Z,66.24
2023-05-14T06:13:52.751Z,66.14
2023-05-14T06:16:20.323Z,65.65
2023-05-14T06:18:47.929Z,65.92
2023-05-14T06:21:15.492Z,65.30
2023-05-14T06:23:43.094Z,64.93
2023-05-14T06:26:12.595Z,63.32
2023-05-14T06:28:40.135Z,61.95
2023-05-14T06:31:07.724Z,60.45
2023-05-14T06:33:35.334Z,59.48
2023-05-14T06:36:06.286Z,58.94
2023-05-14T06:38:33.874Z,59.52
2023-05-14T06:41:01.443Z,58.74
2023-05-14T06:43:29.119Z,57.83
2023-05-14T06:45:56.629Z,57.08
2023-05-14T06:48:24.495Z,57.00
2023-05-14T06:50:52.213Z,56.94
2023-05-14T06:53:19.737Z,56.45
2023-05-14T06:55:48.409Z,56.57
2023-05-14T06:58:15.977Z,55.75
2023-05-14T07:00:44.755Z,54.39
2023-05-14T07:03:12.314Z,54.05
2023-05-14T07:05:42.595Z,54.15
2023-05-14T07:08:10.160Z,54.21
2023-05-14T07:10:37.729Z,54.35
2023-05-14T07:13:05.703Z,53.40
2023-05-14T07:15:35.833Z,52.90
2023-05-14T07:18:03.689Z,52.34
2023-05-14T07:20:31.213Z,52.95
2023-05-14T07:22:58.731Z,53.33
2023-05-14T07:25:26.260Z,51.97
2023-05-14T07:27:53.776Z,50.50
2023-05-14T07:30:21.870Z,49.93
2023-05-14T07:32:49.773Z,49.84
2023-05-14T07:35:17.526Z,50.04
2023-05-14T07:37:45.075Z,50.33
2023-05-14T07:40:12.742Z,50.21
2023-05-14T07:42:40.585Z,49.44
2023-05-14T07:45:08.894Z,49.72
2023-05-14T07:47:36.620Z,50.03
2023-05-14T07:50:04.567Z,49.46
2023-05-14T07:52:32.221Z,49.73
2023-05-14T07:54:59.956Z,49.34
2023-05-14T07:57:27.530Z,49.45
2023-05-14T07:59:55.132Z,48.34
2023-05-14T08:02:22.748Z,47.66
2023-05-14T08:04:50.465Z,47.10
2023-05-14T08:07:18.026Z,45.89
2023-05-14T08:09:45.553Z,46.10
2023-05-14T08:12:14.351Z,45.97
2023-05-14T08:14:42.136Z,45.91
2023-05-14T08:17:09.898Z,45.70
2023-05-14T08:19:37.573Z,45.86
2023-05-14T08:22:05.246Z,46.55
2023-05-14T08:24:32.734Z,44.68
2023-05-14T08:27:00.278Z,45.22
2023-05-14T08:29:28.089Z,45.13
2023-05-14T08:31:55.700Z,45.20
2023-05-14T08:34:23.235Z,45.12
2023-05-14T08:36:50.759Z,44.47
2023-05-14T08:39:18.283Z,45.28
2023-05-14T08:41:45.883Z,44.85
2023-05-14T08:44:17.749Z,43.60
2023-05-14T08:46:45.778Z,43.40
2023-05-14T08:49:35.316Z,42.85
2023-05-14T08:52:03.120Z,43.00
2023-05-14T08:54:30.713Z,43.11
2023-05-14T08:56:58.825Z,43.51
2023-05-14T08:59:26.868Z,42.92
2023-05-14T09:01:56.291Z,43.03
2023-05-14T09:04:25.000Z,42.22
2023-05-14T09:06:53.819Z,40.64
2023-05-14T09:09:22.596Z,39.97
2023-05-14T09:11:52.181Z,39.14
2023-05-14T09:14:20.047Z,38.38
2023-05-14T09:16:51.338Z,39.01
2023-05-14T09:19:19.824Z,39.32
2023-05-14T09:21:49.260Z,39.97
2023-05-14T09:24:21.273Z,39.48
2023-05-14T09:26:53.812Z,39.53
2023-05-14T09:29:28.485Z,37.78
2023-05-14T09:31:57.964Z,37.32
2023-05-14T09:34:34.372Z,37.08
2023-05-14T09:37:06.802Z,38.29
2023-05-14T09:39:36.421Z,38.18
2023-05-14T09:42:04.861Z,36.73
2023-05-14T09:44:32.476Z,34.78
2023-05-14T09:46:59.988Z,34.49
2023-05-14T09:49:27.595Z,34.72
2023-05-14T09:51:55.219Z,34.44
2023-05-14T09:54:24.098Z,33.95
2023-05-14T09:56:52.545Z,32.32
2023-05-14T09:59:20.889Z,31.11
2023-05-14T10:01:49.821Z,28.85
2023-05-14T10:04:18.127Z,26.67
2023-05-14T10:06:48.297Z,24.55
2023-05-14T10:09:19.685Z,25.63
2023-05-14T10:11:50.133Z,24.01
2023-05-14T10:14:22.800Z,23.56
2023-05-14T10:16:51.426Z,22.95
2023-05-14T10:19:23.643Z,22.61
2023-05-14T10:21:57.182Z,21.91
2023-05-14T10:24:25.647Z,20.76
2023-05-14T10:26:53.844Z,19.37
2023-05-14T10:29:33.336Z,18.94
2023-05-14T10:32:04.953Z,19.07
2023-05-14T10:34:38.949Z,19.00
2023-05-14T10:37:09.435Z,18.84
2023-05-14T10:39:43.162Z,19.16
2023-05-14T10:42:12.366Z,19.63
2023-05-14T10:44:54.983Z,20.18
2023-05-14T10:47:23.090Z,19.77
2023-05-14T10:49:54.126Z,20.74
2023-05-14T10:52:22.233Z,19.55
2023-05-14T10:54:50.710Z,19.31
2023-05-14T10:57:20.693Z,19.16
2023-05-14T10:59:50.179Z,19.54
2023-05-14T11:02:23.538Z,20.05
2023-05-14T11:05:07.838Z,19.65
2023-05-14T11:07:40.762Z,20.37
2023-05-14T11:10:09.638Z,20.32
2023-05-14T11:12:42.456Z,20.15
2023-05-14T11:15:12.269Z,20.17
2023-05-14T11:17:41.643Z,20.47
2023-05-14T11:20:10.857Z,20.31
2023-05-14T11:22:39.727Z,20.83
2023-05-14T11:25:08.330Z,20.89
2023-05-14T11:27:38.562Z,21.48
2023-05-14T11:30:13.419Z,21.03
2023-05-14T11:32:41.888Z,21.63
2023-05-14T11:35:09.677Z,21.42
2023-05-14T11:37:37.219Z,22.44
2023-05-14T11:40:08.350Z,22.46
2023-05-14T11:42:36.830Z,22.88
2023-05-14T11:45:10.448Z,21.86
2023-05-14T11:47:38.030Z,21.97
2023-05-14T11:50:07.949Z,21.90
2023-05-14T11:52:39.108Z,21.31
2023-05-14T11:55:10.732Z,20.75
2023-05-14T11:57:38.387Z,20.51
2023-05-14T12:00:11.345Z,19.06
2023-05-14T12:02:39.259Z,18.46
2023-05-14T12:05:10.168Z,18.35
2023-05-14T12:07:39.009Z,18.61
2023-05-14T12:10:06.734Z,18.50
2023-05-14T12:12:36.134Z,17.58
2023-05-14T12:15:11.360Z,17.39
2023-05-14T12:17:39.510Z,17.71
2023-05-14T12:20:11.635Z,17.58
2023-05-14T12:22:41.504Z,17.50
2023-05-14T12:25:13.114Z,17.23
2023-05-14T12:27:41.475Z,17.32
2023-05-14T12:32:39.998Z,18.05
2023-05-14T12:35:08.448Z,17.83
2023-05-14T12:37:36.258Z,18.13
2023-05-14T12:40:04.811Z,16.96
2023-05-14T12:42:32.370Z,17.19
2023-05-14T12:44:59.898Z,17.96
2023-05-14T12:47:27.499Z,17.61
2023-05-14T12:49:55.078Z,17.65
2023-05-14T12:52:36.806Z,17.60
2023-05-14T12:55:09.077Z,16.39
2023-05-14T12:57:37.824Z,16.23
2023-05-14T13:00:06.282Z,16.27
2023-05-14T13:02:43.044Z,17.03
2023-05-14T13:05:12.009Z,17.63
2023-05-14T13:07:39.661Z,18.03
2023-05-14T13:10:07.690Z,18.44
2023-05-14T13:12:35.240Z,17.96
2023-05-14T13:15:02.827Z,18.64
2023-05-14T13:17:33.309Z,19.21
2023-05-14T13:20:01.061Z,19.97
2023-05-14T13:22:28.620Z,20.70
2023-05-14T13:24:56.158Z,21.38
2023-05-14T13:27:23.895Z,20.88
2023-05-14T13:29:51.623Z,20.97
2023-05-14T13:32:19.130Z,21.20
2023-05-14T13:34:46.662Z,22.02
2023-05-14T13:37:14.283Z,21.62
2023-05-14T13:39:41.814Z,22.09
2023-05-14T13:42:09.329Z,22.65
2023-05-14T13:44:37.048Z,23.44
2023-05-14T13:47:05.063Z,23.65
2023-05-14T13:49:32.656Z,23.64
2023-05-14T13:52:00.274Z,24.05
2023-05-14T13:54:27.825Z,24.56
2023-05-14T13:56:55.531Z,25.01
2023-05-14T13:59:23.107Z,25.20
2023-05-14T14:01:50.669Z,25.44
2023-05-14T14:04:18.237Z,26.89
2023-05-14T14:06:45.753Z,26.42
2023-05-14T14:09:13.286Z,27.17
2023-05-14T14:11:40.946Z,27.28
2023-05-14T14:14:08.472Z,27.35
2023-05-14T14:16:36.054Z,27.37
2023-05-14T14:19:03.813Z,27.55
2023-05-14T14:21:31.451Z,27.50
2023-05-14T14:23:58.993Z,28.23
2023-05-14T14:26:26.602Z,28.24
2023-05-14T14:28:54.166Z,28.27
2023-05-14T14:31:21.980Z,28.84
2023-05-14T14:33:49.621Z,29.29
2023-05-14T14:36:17.157Z,29.39
2023-05-14T14:38:44.732Z,29.49
2023-05-14T14:41:12.366Z,29.87
2023-05-14T14:43:40.801Z,30.36
2023-05-14T14:46:08.366Z,30.76
2023-05-14T14:48:36.374Z,31.00
2023-05-14T14:51:05.690Z,30.92
2023-05-14T14:53:33.676Z,31.02
2023-05-14T14:56:01.844Z,31.67
2023-05-14T14:58:29.519Z,32.23
2023-05-14T15:00:57.521Z,32.43
2023-05-14T15:03:25.945Z,32.31
2023-05-14T15:05:53.968Z,32.47
2023-05-14T15:08:26.019Z,32.75
2023-05-14T15:10:54.879Z,32.58
2023-05-14T15:13:22.812Z,32.92
2023-05-14T15:15:51.346Z,33.51
2023-05-14T15:18:18.973Z,33.20
2023-05-14T15:20:49.705Z,33.34
2023-05-14T15:23:17.353Z,33.19
2023-05-14T15:25:44.946Z,33.27
2023-05-14T15:28:12.631Z,33.84
2023-05-14T15:30:40.201Z,34.01
2023-05-14T15:33:08.097Z,34.01
2023-05-14T15:35:35.787Z,33.89
2023-05-14T15:38:03.482Z,33.88
2023-05-14T15:40:31.009Z,34.45
2023-05-14T15:42:58.664Z,34.79
2023-05-14T15:45:26.237Z,34.93
2023-05-14T15:47:53.988Z,35.36
2023-05-14T15:50:21.662Z,35.76
2023-05-14T15:52:49.368Z,36.01
2023-05-14T15:55:16.984Z,36.46
2023-05-14T15:57:47.615Z,36.17
2023-05-14T16:00:15.788Z,36.36
2023-05-14T16:02:43.434Z,36.23
2023-05-14T16:05:11.191Z,36.18
2023-05-14T16:07:38.854Z,36.37
2023-05-14T16:10:07.074Z,36.69
2023-05-14T16:12:34.749Z,36.86
2023-05-14T16:15:02.324Z,37.61
2023-05-14T16:17:30.011Z,37.47
2023-05-14T16:19:57.574Z,37.65
2023-05-14T16:22:25.263Z,37.73
2023-05-14T16:24:53.018Z,38.18
2023-05-14T16:27:20.525Z,38.55
2023-05-14T16:29:48.030Z,38.57
2023-05-14T16:32:15.645Z,38.74
2023-05-14T16:34:43.204Z,38.48
2023-05-14T16:37:13.050Z,38.86
2023-05-14T16:39:40.791Z,38.99
2023-05-14T16:42:08.404Z,39.10
2023-05-14T16:44:35.982Z,38.85
2023-05-14T16:47:04.313Z,39.55
2023-05-14T16:49:31.833Z,39.54
2023-05-14T16:51:59.402Z,39.85
2023-05-14T16:54:27.018Z,40.46
2023-05-14T16:56:54.573Z,40.34
2023-05-14T16:59:22.109Z,40.52
2023-05-14T17:01:49.820Z,40.52
2023-05-14T17:04:17.454Z,40.87
2023-05-14T17:06:46.345Z,41.08
2023-05-14T17:09:13.905Z,41.36
2023-05-14T17:11:41.443Z,41.56
2023-05-14T17:14:07.909Z,41.95
2023-05-14T17:16:35.404Z,42.08
2023-05-14T17:19:01.905Z,42.40
2023-05-14T17:21:29.492Z,42.65
2023-05-14T17:23:57.172Z,42.52
2023-05-14T17:26:24.940Z,42.89
2023-05-14T17:28:52.491Z,42.89
2023-05-14T17:31:20.093Z,43.03
2023-05-14T17:33:47.692Z,43.18
2023-05-14T17:36:15.273Z,43.36
2023-05-14T17:38:42.825Z,43.62
2023-05-14T17:41:10.402Z,44.14
2023-05-14T17:43:37.975Z,44.55
2023-05-14T17:46:05.570Z,45.54
2023-05-14T17:48:33.127Z,46.47
2023-05-14T17:51:00.720Z,47.86
2023-05-14T17:53:28.285Z,49.99
2023-05-14T17:55:55.882Z,50.61
2023-05-14T17:58:24.161Z,51.42
2023-05-14T18:00:51.782Z,53.58
2023-05-14T18:03:19.683Z,53.95
2023-05-14T18:05:47.426Z,55.62
2023-05-14T18:08:14.998Z,57.15
2023-05-14T18:10:42.615Z,58.44
2023-05-14T18:13:10.153Z,59.38
2023-05-14T18:15:37.745Z,60.60
2023-05-14T18:18:05.783Z,62.34
2023-05-14T18:20:35.331Z,62.84
2023-05-14T18:23:03.386Z,63.22
2023-05-14T18:25:30.994Z,64.89
2023-05-14T18:27:59.043Z,65.17
2023-05-14T18:30:26.581Z,64.85
2023-05-14T18:32:54.166Z,64.96
2023-05-14T18:35:21.872Z,65.46
2023-05-14T18:37:49.604Z,66.19
2023-05-14T18:40:18.732Z,66.85
2023-05-14T18:42:46.651Z,67.86
2023-05-14T18:45:14.241Z,67.94
2023-05-14T18:47:41.920Z,69.28
2023-05-14T18:50:10.042Z,70.04
2023-05-14T18:52:37.652Z,70.52
2023-05-14T18:55:05.699Z,71.17
2023-05-14T18:57:33.399Z,72.37
2023-05-14T19:00:00.970Z,73.28
2023-05-14T19:02:28.789Z,74.25
2023-05-14T19:04:56.572Z,75.39
2023-05-14T19:07:24.352Z,76.19
2023-05-14T19:09:52.312Z,76.19
2023-05-14T19:12:19.855Z,76.45
2023-05-14T19:14:47.395Z,76.73
2023-05-14T19:17:14.992Z,77.09
2023-05-14T19:19:42.490Z,77.54
2023-05-14T19:22:10.062Z,77.77
2023-05-14T19:24:37.627Z,77.87
2023-05-14T19:27:05.553Z,77.68
2023-05-14T19:29:33.114Z,77.99
2023-05-14T19:32:00.836Z,77.85
2023-05-14T19:34:28.531Z,77.67
2023-05-14T19:36:56.116Z,77.96
2023-05-14T19:39:23.686Z,78.10
2023-05-14T19:41:51.293Z,78.54
2023-05-14T19:44:18.958Z,78.64
2023-05-14T19:46:48.715Z,78.69
2023-05-14T19:49:16.444Z,78.64
2023-05-14T19:51:44.104Z,78.64
2023-05-14T19:54:11.620Z,79.28
2023-05-14T19:56:39.231Z,79.84
2023-05-14T19:59:06.746Z,79.55
2023-05-14T20:01:36.840Z,79.52
2023-05-14T20:04:04.611Z,80.08
2023-05-14T20:06:32.163Z,80.00
2023-05-14T20:09:00.750Z,80.06
2023-05-14T20:11:28.274Z,80.10
2023-05-14T20:13:55.818Z,80.55
2023-05-14T20:16:26.183Z,80.94
2023-05-14T20:18:54.182Z,81.39
2023-05-14T20:21:21.759Z,81.51
2023-05-14T20:23:49.315Z,81.39
2023-05-14T20:26:16.899Z,81.76
2023-05-14T20:28:44.473Z,81.81
2023-05-14T20:31:12.032Z,81.82
2023-05-14T20:33:39.557Z,82.12
2023-05-14T20:36:07.136Z,82.45
2023-05-14T20:38:34.763Z,82.56
2023-05-14T20:41:02.346Z,82.67
2023-05-14T20:43:29.888Z,82.94
2023-05-14T20:45:58.658Z,83.14
2023-05-14T20:48:26.304Z,83.53
2023-05-14T20:50:53.828Z,83.85
2023-05-14T20:53:21.413Z,83.82
2023-05-14T20:55:49.079Z,84.09
2023-05-14T20:58:16.616Z,84.44
2023-05-14T21:00:44.147Z,84.46
2023-05-14T21:03:11.852Z,84.68
2023-05-14T21:05:39.592Z,84.71
2023-05-14T21:08:07.738Z,84.84
2023-05-14T21:10:35.425Z,84.72
2023-05-14T21:13:02.978Z,84.58
2023-05-14T21:15:30.556Z,84.55
2023-05-14T21:17:58.310Z,84.59
2023-05-14T21:20:25.957Z,84.51
2023-05-14T21:22:53.508Z,84.22
2023-05-14T21:25:21.165Z,84.20
2023-05-14T21:27:48.722Z,84.56
2023-05-14T21:30:16.397Z,84.47
2023-05-14T21:32:43.952Z,84.40
2023-05-14T21:35:11.590Z,84.45
2023-05-14T21:37:39.293Z,84.53
2023-05-14T21:40:09.166Z,84.65
2023-05-14T21:42:36.617Z,84.61
2023-05-14T21:45:04.517Z,84.97
2023-05-14T21:47:33.010Z,84.80
2023-05-14T21:50:00.635Z,84.76
2023-05-14T21:52:28.170Z,84.66
2023-05-14T21:55:04.915Z,84.57
2023-05-14T21:57:34.657Z,84.55
2023-05-14T22:00:04.733Z,84.42
2023-05-14T22:02:32.399Z,84.41
2023-05-14T22:05:00.081Z,84.47
2023-05-14T22:07:27.637Z,84.42
2023-05-14T22:09:55.190Z,84.37
2023-05-14T22:12:22.746Z,84.36
2023-05-14T22:14:50.286Z,84.26
2023-05-14T22:17:17.852Z,84.21
2023-05-14T22:19:45.389Z,84.09
2023-05-14T22:22:12.950Z,83.78
2023-05-14T22:24:40.454Z,83.78
2023-05-14T22:27:07.999Z,83.60
2023-05-14T22:29:37.506Z,83.72
2023-05-14T22:32:06.647Z,83.68
2023-05-14T22:34:34.166Z,83.66
2023-05-14T22:37:01.941Z,83.56
2023-05-14T22:39:29.674Z,83.83
2023-05-14T22:41:57.281Z,83.60
2023-05-14T22:44:25.417Z,83.57
2023-05-14T22:46:53.727Z,83.59
2023-05-14T22:49:21.404Z,83.45
2023-05-14T22:51:50.089Z,83.44
2023-05-14T22:54:17.654Z,83.57
2023-05-14T22:56:46.001Z,83.48
2023-05-14T22:59:13.562Z,83.52
2023-05-14T23:01:41.401Z,83.74
2023-05-14T23:04:09.053Z,83.74
2023-05-14T23:06:37.290Z,83.76
2023-05-14T23:09:04.896Z,83.68
2023-05-14T23:11:32.408Z,83.70
2023-05-14T23:13:59.913Z,83.68
2023-05-14T23:16:27.562Z,83.44
2023-05-14T23:18:56.199Z,83.47
2023-05-14T23:21:23.954Z,83.53
2023-05-14T23:23:51.789Z,83.76
2023-05-14T23:26:19.401Z,83.86
2023-05-14T23:28:46.932Z,83.91
2023-05-14T23:31:14.461Z,83.88
2023-05-14T23:33:41.974Z,83.88
2023-05-14T23:36:09.746Z,84.02
2023-05-14T23:38:37.614Z,84.35
2023-05-14T23:41:05.183Z,84.35
2023-05-14T23:43:32.731Z,84.45
2023-05-14T23:46:00.878Z,84.83
2023-05-14T23:48:28.563Z,85.03
2023-05-14T23:50:58.005Z,84.88
2023-05-14T23:53:25.778Z,84.84
2023-05-14T23:55:53.349Z,85.05
2023-05-14T23:58:20.961Z,85.04
